Terminal Aerodrome Forecast
Issued by NWS Greer, SC

Home | Current Version | Previous Version | Text Only | Print | Product List | Glossary On
Versions: 1 2 3 4 5 6 7 8 9 10 11 12 13 14 15 16 17 18 19 20 21 22 23
000
FTUS42 KGSP 190300 AAB
TAFCLT
TAF AMD
KCLT 190357Z 1904/1924 02011KT 6SM RA BR SCT025 OVC060
     FM190600 03012G19KT 6SM RA BR OVC007
     FM191400 03015G26KT 6SM RA BR OVC007
     FM191600 04015G26KT P6SM -RA OVC012
     FM191800 04013G22KT P6SM OVC012 PROB30 1920/1924 P6SM -RA
      OVC009=

USA.gov is the U.S. government's official web portal to all federal, state and local government web resources and services.